West Shokan, NY (12494)

8:05 PM EDT on September 01, 2015 (GMT -0400)
Bag End | | Change Station
CLOSE
Current Station
Personal Weather Station
Location: Boiceville, NY
Elevation: 1096 ft
Nearby Weather Stations

Elev 1096 ft 42.00 °N, 74.25 °W | Updated 46 seconds ago

Clear
Clear
70.9 °F
Feels Like 70.9 °F
N
1.6
Wind Variable Wind from East
Gusts 1.6 mph

Today
High -- | Low -- °F
--% Chance of Precip.
Yesterday
High -- | Low -- °F
Precip. -- in
6:22 AM 7:31 PM
Waning Gibbous, 85% visible
Pressure 30.02 in
Visibility 10.0 miles
Clouds Clear
Dew Point 71 °F
Humidity 99%
Rainfall 0.00 in
Snow Depth Not available.
UV 0 out of 12
Pollen 9.30 out of 12
Air Quality Not available.
Flu Activity Not available.
METAR KMGJ 012354Z AUTO 00000KT 10SM CLR 23/19 A3003 RMK AO2 SLP166 T02280189 10317 20228 53003 TSNO
Pressure 30.02 in
Visibility 10.0 miles
Clouds Clear
Dew Point 71 °F
Humidity 99%
Rainfall 0.00 in
Snow Depth Not available.
UV 0 out of 12
Pollen 9.30 out of 12
Air Quality Not available.
Flu Activity Not available.
METAR KMGJ 012354Z AUTO 00000KT 10SM CLR 23/19 A3003 RMK AO2 SLP166 T02280189 10317 20228 53003 TSNO

10-Day Weather Forecast

×

Almanac

Astronomy

Sep. 01, 2015 Rise Set
Actual Time
Civil Twilight
Nautical Twilight
Astronomical Twilight
Moon
Length of Visible Light
Length of Day
Tomorrow will be .
, % of the Moon is Illuminated

Today's Extremes

State Highs State Lows

Community

WunderPhotos

Upload Photos

1,851,653 photos uploaded!

WunderBlogs® & News

Nearby

Air Quality

  Air Quality AQ Index Pollutant
Not available.

Snow Depth

Station Depth Elevation

Earthquake Activity

City Distance Mag. Time & Date
Minimum magnitude displayed is 2.5.

Coastal Water Temperatures

Place Temperature

Stations

Nearby Weather Stations

Station Location Temp. Windchill Dew Point Humidity Wind Precip. Elev Updated Type